createdAt,value
2022-12-27T10:12:08.548Z,41.74
2022-12-27T10:12:17.441Z,41.54
2022-12-27T10:12:31.819Z,41.54
2022-12-27T10:12:39.214Z,41.74
2022-12-27T10:12:49.768Z,41.34
2022-12-27T10:13:00.749Z,41.26
2022-12-27T10:13:11.554Z,41.24
2022-12-27T10:13:22.105Z,41.03
2022-12-27T10:13:33.142Z,41.14
2022-12-27T10:13:43.927Z,41.64
2022-12-27T10:13:54.474Z,42.15
2022-12-27T10:14:05.469Z,41.54
2022-12-27T10:14:16.300Z,41.54
2022-12-27T10:14:26.866Z,41.44
2022-12-27T10:14:37.854Z,41.64
2022-12-27T10:14:48.672Z,41.64
2022-12-27T10:14:59.217Z,41.64
2022-12-27T10:15:10.213Z,41.54
2022-12-27T10:15:20.990Z,41.34
2022-12-27T10:15:31.568Z,41.54
2022-12-27T10:15:42.561Z,41.44
2022-12-27T10:15:53.390Z,41.34
2022-12-27T10:16:03.969Z,41.54
2022-12-27T10:16:14.954Z,41.44
2022-12-27T10:16:25.795Z,41.44
2022-12-27T10:16:36.322Z,41.34
2022-12-27T10:16:47.314Z,41.54
2022-12-27T10:16:58.107Z,41.44
2022-12-27T10:17:08.658Z,41.24
2022-12-27T10:17:19.656Z,41.14
2022-12-27T10:17:30.459Z,41.85
2022-12-27T10:17:41.011Z,41.85
2022-12-27T10:17:53.570Z,41.54
2022-12-27T10:18:02.708Z,41.74
2022-12-27T10:18:13.281Z,41.44
2022-12-27T10:18:24.270Z,41.34
2022-12-27T10:18:35.054Z,40.83
2022-12-27T10:18:45.641Z,40.73
2022-12-27T10:18:56.590Z,40.63
2022-12-27T10:19:07.396Z,40.53
2022-12-27T10:19:18.037Z,40.53
2022-12-27T10:19:28.970Z,40.53
2022-12-27T10:19:39.759Z,40.53
2022-12-27T10:19:50.302Z,40.43
2022-12-27T10:20:01.291Z,40.53
2022-12-27T10:20:12.078Z,40.33
2022-12-27T10:20:22.653Z,40.63
2022-12-27T10:20:33.652Z,40.94
2022-12-27T10:20:44.446Z,40.73
2022-12-27T10:20:54.999Z,40.73
2022-12-27T10:21:05.979Z,40.63
2022-12-27T10:21:16.810Z,40.94
2022-12-27T10:21:27.363Z,41.03
2022-12-27T10:21:38.325Z,40.83
2022-12-27T10:21:49.124Z,40.63
2022-12-27T10:21:59.697Z,40.43
2022-12-27T10:22:10.732Z,40.63
2022-12-27T10:22:21.484Z,40.83
2022-12-27T10:22:32.031Z,41.03
2022-12-27T10:22:43.000Z,41.03
2022-12-27T10:22:53.798Z,40.83
2022-12-27T10:23:06.374Z,40.83
2022-12-27T10:23:15.042Z,40.63
2022-12-27T10:23:25.822Z,40.43
2022-12-27T10:23:36.380Z,40.53
2022-12-27T10:23:47.360Z,40.63
2022-12-27T10:23:58.170Z,40.53
2022-12-27T10:24:08.700Z,40.43
2022-12-27T10:24:19.705Z,40.63
2022-12-27T10:24:30.477Z,40.53
2022-12-27T10:24:41.064Z,40.53
2022-12-27T10:24:52.023Z,40.53
2022-12-27T10:25:02.803Z,40.63
2022-12-27T10:25:13.522Z,40.94
2022-12-27T10:25:24.489Z,41.14
2022-12-27T10:25:35.334Z,41.64
2022-12-27T10:25:45.883Z,40.73
2022-12-27T10:25:56.393Z,40.33
2022-12-27T10:26:07.227Z,40.63
2022-12-27T10:26:17.791Z,40.02
2022-12-27T10:26:28.785Z,40.02
2022-12-27T10:26:39.590Z,39.72
2022-12-27T10:26:50.129Z,39.82
2022-12-27T10:27:01.120Z,40.02
2022-12-27T10:27:11.939Z,40.63
2022-12-27T10:27:22.464Z,41.03
2022-12-27T10:27:33.447Z,41.24
2022-12-27T10:27:44.230Z,40.94
2022-12-27T10:27:54.799Z,40.83
2022-12-27T10:28:05.754Z,40.73
2022-12-27T10:28:16.555Z,40.83
2022-12-27T10:28:27.129Z,40.63
2022-12-27T10:28:38.102Z,40.73
2022-12-27T10:28:51.196Z,40.73
2022-12-27T10:29:00.470Z,40.73
2022-12-27T10:29:10.396Z,40.94
2022-12-27T10:29:21.171Z,40.94
2022-12-27T10:29:31.712Z,40.94
2022-12-27T10:29:42.715Z,40.94
2022-12-27T10:29:53.485Z,40.94
2022-12-27T10:30:04.029Z,40.94
2022-12-27T10:30:15.003Z,40.94
2022-12-27T10:30:25.786Z,40.94
2022-12-27T10:30:36.407Z,40.83
2022-12-27T10:30:47.367Z,40.83
2022-12-27T10:30:58.178Z,40.94
2022-12-27T10:31:08.907Z,40.94
2022-12-27T10:31:19.339Z,40.94
2022-12-27T10:31:30.174Z,40.73
2022-12-27T10:31:40.764Z,40.83
2022-12-27T10:31:51.720Z,40.94
2022-12-27T10:32:02.499Z,40.53
2022-12-27T10:32:13.251Z,40.43
2022-12-27T10:32:24.233Z,40.53
2022-12-27T10:32:35.083Z,40.83
2022-12-27T10:32:45.608Z,40.73
2022-12-27T10:32:56.647Z,40.63
2022-12-27T10:33:07.378Z,40.53
2022-12-27T10:33:18.462Z,40.53
2022-12-27T10:33:29.498Z,40.53
2022-12-27T10:33:40.241Z,40.43
2022-12-27T10:33:50.781Z,40.43
2022-12-27T10:34:05.074Z,40.53
2022-12-27T10:34:13.741Z,40.53
2022-12-27T10:34:23.729Z,40.83
2022-12-27T10:34:34.741Z,40.94
2022-12-27T10:34:45.541Z,40.94
2022-12-27T10:34:56.066Z,40.94
2022-12-27T10:35:07.050Z,40.94
2022-12-27T10:35:17.824Z,40.63
2022-12-27T10:35:28.369Z,40.53
2022-12-27T10:35:39.415Z,40.73
2022-12-27T10:35:50.234Z,40.53
2022-12-27T10:36:00.782Z,40.83
2022-12-27T10:36:11.767Z,41.34
2022-12-27T10:36:22.553Z,41.22
2022-12-27T10:36:33.107Z,41.42
2022-12-27T10:36:44.085Z,41.32
2022-12-27T10:36:54.898Z,40.91
2022-12-27T10:37:05.425Z,40.51
2022-12-27T10:37:16.418Z,40.20
2022-12-27T10:37:27.185Z,39.90
2022-12-27T10:37:38.273Z,39.80
2022-12-27T10:37:49.263Z,39.50
2022-12-27T10:38:00.050Z,39.39
2022-12-27T10:38:10.600Z,39.80
2022-12-27T10:38:21.608Z,39.50
2022-12-27T10:38:32.372Z,39.50
2022-12-27T10:38:43.463Z,39.70
2022-12-27T10:38:54.443Z,39.70
2022-12-27T10:39:05.235Z,39.90
2022-12-27T10:39:15.776Z,40.11
2022-12-27T10:39:26.743Z,40.31
2022-12-27T10:39:37.549Z,40.31
2022-12-27T10:39:48.087Z,40.11
2022-12-27T10:39:59.066Z,40.20
2022-12-27T10:40:09.871Z,40.31
2022-12-27T10:40:20.408Z,40.61
2022-12-27T10:40:34.565Z,39.90
2022-12-27T10:40:42.538Z,39.60
2022-12-27T10:40:53.152Z,39.50
2022-12-27T10:41:04.106Z,39.39
2022-12-27T10:41:15.014Z,39.19
2022-12-27T10:41:25.561Z,38.99
2022-12-27T10:41:36.536Z,38.89
2022-12-27T10:41:47.356Z,38.99
2022-12-27T10:41:57.914Z,39.19
2022-12-27T10:42:08.878Z,39.29
2022-12-27T10:42:19.676Z,39.60
2022-12-27T10:42:30.743Z,39.90
2022-12-27T10:42:41.895Z,40.00
2022-12-27T10:42:52.733Z,40.00
2022-12-27T10:43:03.845Z,39.70
2022-12-27T10:43:14.812Z,39.70
2022-12-27T10:43:25.600Z,39.39
2022-12-27T10:43:36.162Z,39.09
2022-12-27T10:43:47.130Z,38.87
2022-12-27T10:43:57.918Z,38.89
2022-12-27T10:44:08.477Z,38.79
2022-12-27T10:44:19.475Z,38.89
2022-12-27T10:44:30.263Z,38.87
2022-12-27T10:44:40.781Z,38.87
2022-12-27T10:44:51.809Z,38.87
2022-12-27T10:45:02.555Z,39.07
2022-12-27T10:45:13.097Z,39.17
2022-12-27T10:45:24.080Z,38.57
2022-12-27T10:45:34.875Z,38.37
2022-12-27T10:45:45.449Z,38.57
2022-12-27T10:45:56.397Z,38.46
2022-12-27T10:46:07.226Z,38.16
2022-12-27T10:46:17.796Z,38.06
2022-12-27T10:46:32.701Z,38.16
2022-12-27T10:46:39.613Z,38.16
2022-12-27T10:46:50.172Z,38.06
2022-12-27T10:47:01.218Z,37.96
2022-12-27T10:47:12.019Z,37.74
2022-12-27T10:47:22.555Z,37.74
2022-12-27T10:47:33.515Z,37.84
2022-12-27T10:47:44.301Z,37.94
2022-12-27T10:47:54.831Z,38.14
2022-12-27T10:48:05.816Z,38.24
2022-12-27T10:48:16.595Z,37.84
2022-12-27T10:48:36.352Z,37.84
2022-12-27T10:49:18.987Z,37.74
2022-12-27T10:49:19.414Z,37.64
2022-12-27T10:49:20.946Z,37.64
2022-12-27T10:49:22.785Z,37.74
2022-12-27T10:49:23.262Z,37.64
2022-12-27T10:49:33.263Z,37.52
2022-12-27T10:49:44.227Z,37.62
2022-12-27T10:49:55.007Z,37.72
2022-12-27T10:50:05.556Z,37.62
2022-12-27T10:50:16.531Z,37.62
2022-12-27T10:50:27.318Z,37.52
2022-12-27T10:50:37.897Z,37.52
2022-12-27T10:50:48.911Z,37.52
2022-12-27T10:50:59.673Z,37.62
2022-12-27T10:51:10.214Z,37.82
2022-12-27T10:51:21.218Z,37.42
2022-12-27T10:51:32.005Z,37.01
2022-12-27T10:51:42.563Z,37.01
2022-12-27T10:51:53.534Z,36.91
2022-12-27T10:52:04.318Z,36.91
2022-12-27T10:52:14.874Z,36.71
2022-12-27T10:52:25.845Z,36.90
2022-12-27T10:52:36.696Z,36.79
2022-12-27T10:52:50.155Z,36.90
2022-12-27T10:52:59.205Z,36.59
2022-12-27T10:53:08.871Z,36.69
2022-12-27T10:53:19.377Z,36.29
2022-12-27T10:53:30.378Z,36.19
2022-12-27T10:53:41.215Z,36.27
2022-12-27T10:53:51.727Z,36.27
2022-12-27T10:54:02.705Z,36.27
2022-12-27T10:54:13.484Z,36.27
2022-12-27T10:54:24.108Z,36.27
2022-12-27T10:54:35.057Z,36.27
2022-12-27T10:54:45.844Z,36.37
2022-12-27T10:54:56.406Z,36.35
2022-12-27T10:55:07.381Z,36.46
2022-12-27T10:55:18.194Z,36.66
2022-12-27T10:55:28.713Z,36.35
2022-12-27T10:55:39.827Z,36.05
2022-12-27T10:55:50.593Z,35.53
2022-12-27T10:56:01.119Z,35.33
2022-12-27T10:56:12.106Z,35.33
2022-12-27T10:56:22.885Z,35.13
2022-12-27T10:56:33.511Z,34.72
2022-12-27T10:56:44.479Z,34.72
2022-12-27T10:56:55.212Z,34.30
2022-12-27T10:57:06.329Z,34.41
2022-12-27T10:57:17.315Z,34.50
2022-12-27T10:57:28.120Z,34.20
2022-12-27T10:57:38.661Z,34.30
2022-12-27T10:57:49.728Z,34.28
2022-12-27T10:58:00.472Z,33.98
2022-12-27T10:58:11.532Z,34.28
2022-12-27T10:58:22.601Z,34.19
2022-12-27T10:58:33.344Z,34.19
2022-12-27T10:58:43.877Z,33.67
2022-12-27T10:58:58.735Z,33.56
2022-12-27T10:59:05.737Z,33.36
2022-12-27T10:59:16.291Z,33.56
2022-12-27T10:59:27.279Z,33.76
2022-12-27T10:59:38.054Z,33.65
2022-12-27T10:59:48.596Z,33.55
2022-12-27T10:59:59.575Z,33.55
2022-12-27T11:00:10.360Z,33.55
2022-12-27T11:00:21.480Z,33.23
2022-12-27T11:00:32.510Z,32.95
2022-12-27T11:00:43.265Z,32.83
2022-12-27T11:00:53.852Z,33.03
2022-12-27T11:01:04.858Z,33.03
2022-12-27T11:01:15.779Z,32.93
2022-12-27T11:01:26.469Z,32.73
2022-12-27T11:01:37.621Z,32.61
2022-12-27T11:01:48.645Z,32.41
2022-12-27T11:01:59.323Z,32.41
2022-12-27T11:02:09.822Z,32.41
2022-12-27T11:02:20.719Z,32.41
2022-12-27T11:02:31.442Z,32.31
2022-12-27T11:02:41.994Z,32.31
2022-12-27T11:02:52.903Z,31.99
2022-12-27T11:03:03.469Z,32.09
2022-12-27T11:03:14.416Z,31.99
2022-12-27T11:03:25.243Z,31.89
2022-12-27T11:03:35.801Z,31.68
2022-12-27T11:03:46.771Z,31.48
2022-12-27T11:03:57.552Z,31.48
2022-12-27T11:04:08.669Z,31.37
2022-12-27T11:04:20.921Z,31.37
2022-12-27T11:04:30.243Z,31.27
2022-12-27T11:04:41.333Z,30.97
2022-12-27T11:04:52.296Z,30.76
2022-12-27T11:05:03.086Z,30.46
2022-12-27T11:05:13.633Z,30.35
2022-12-27T11:05:24.639Z,30.76
2022-12-27T11:05:35.417Z,31.16
2022-12-27T11:05:45.970Z,31.16
2022-12-27T11:05:57.068Z,30.96
2022-12-27T11:06:07.823Z,30.65
2022-12-27T11:06:18.345Z,30.76
2022-12-27T11:06:29.328Z,30.85
2022-12-27T11:06:40.146Z,30.94
2022-12-27T11:06:50.663Z,30.54
2022-12-27T11:07:01.649Z,30.44
2022-12-27T11:07:12.433Z,30.44
2022-12-27T11:07:23.045Z,30.43
2022-12-27T11:07:34.009Z,30.43
2022-12-27T11:07:44.818Z,30.32
2022-12-27T11:07:55.359Z,30.02
2022-12-27T11:08:06.350Z,29.93
2022-12-27T11:08:17.115Z,29.91
2022-12-27T11:08:27.660Z,29.91
2022-12-27T11:08:38.624Z,29.81
2022-12-27T11:08:49.437Z,29.69
2022-12-27T11:08:59.974Z,29.39
2022-12-27T11:09:10.937Z,29.09
2022-12-27T11:09:21.710Z,28.89
2022-12-27T11:09:32.282Z,29.19
2022-12-27T11:09:48.381Z,29.18
2022-12-27T11:09:55.218Z,29.08
2022-12-27T11:10:05.232Z,29.08
2022-12-27T11:10:16.304Z,29.06
2022-12-27T11:10:27.040Z,29.06
2022-12-27T11:10:37.612Z,28.77
2022-12-27T11:10:48.584Z,28.46
2022-12-27T11:10:59.394Z,28.35
2022-12-27T11:11:09.952Z,28.35
2022-12-27T11:11:20.969Z,28.15
2022-12-27T11:11:31.698Z,27.95
2022-12-27T11:11:42.777Z,27.94
2022-12-27T11:11:53.776Z,27.73
2022-12-27T11:12:04.550Z,27.83
2022-12-27T11:12:15.103Z,27.44
2022-12-27T11:12:26.142Z,27.42
2022-12-27T11:12:36.899Z,27.42
2022-12-27T11:12:47.439Z,27.32
2022-12-27T11:12:58.427Z,27.32
2022-12-27T11:13:09.212Z,27.21
2022-12-27T11:13:19.794Z,27.21
2022-12-27T11:13:30.737Z,27.21
2022-12-27T11:13:41.539Z,27.31
2022-12-27T11:13:52.075Z,27.01
2022-12-27T11:14:03.043Z,26.61
2022-12-27T11:14:13.834Z,26.20
2022-12-27T11:14:24.410Z,26.09
2022-12-27T11:14:35.382Z,26.29
2022-12-27T11:14:46.167Z,26.59
2022-12-27T11:14:57.251Z,26.28
2022-12-27T11:15:08.234Z,26.18
2022-12-27T11:15:19.033Z,26.28
2022-12-27T11:15:29.572Z,26.39
2022-12-27T11:15:40.582Z,26.37
2022-12-27T11:15:55.380Z,26.47
2022-12-27T11:16:03.507Z,26.37
2022-12-27T11:16:13.395Z,26.37
2022-12-27T11:16:24.175Z,26.37
2022-12-27T11:16:35.285Z,26.35
2022-12-27T11:16:46.267Z,26.16
2022-12-27T11:16:57.013Z,26.06
2022-12-27T11:17:07.572Z,26.16
2022-12-27T11:17:18.570Z,26.15
2022-12-27T11:17:29.361Z,26.15
2022-12-27T11:17:39.916Z,26.25
2022-12-27T11:17:50.883Z,26.25
2022-12-27T11:18:01.707Z,26.04
2022-12-27T11:18:12.233Z,25.95
2022-12-27T11:18:23.222Z,25.84
2022-12-27T11:18:33.988Z,25.93
2022-12-27T11:18:45.075Z,25.93
2022-12-27T11:18:56.068Z,26.03
2022-12-27T11:19:06.861Z,26.03
2022-12-27T11:19:17.411Z,26.02
2022-12-27T11:19:28.417Z,25.82
2022-12-27T11:19:39.186Z,25.72
2022-12-27T11:19:50.277Z,25.62
2022-12-27T11:20:01.233Z,25.22
2022-12-27T11:20:12.021Z,25.12
2022-12-27T11:20:23.109Z,25.02
2022-12-27T11:20:34.077Z,25.12
2022-12-27T11:20:44.854Z,25.23
2022-12-27T11:20:55.406Z,25.34
2022-12-27T11:21:06.407Z,24.84
2022-12-27T11:21:24.096Z,24.93
2022-12-27T11:21:29.289Z,25.05
2022-12-27T11:21:39.190Z,25.24
2022-12-27T11:21:49.964Z,25.45
2022-12-27T11:22:01.057Z,25.65
2022-12-27T11:22:12.039Z,25.55
2022-12-27T11:22:22.801Z,25.45
2022-12-27T11:22:33.352Z,25.35
2022-12-27T11:22:44.349Z,25.23
2022-12-27T11:22:55.148Z,25.04
2022-12-27T11:23:06.209Z,24.93
2022-12-27T11:23:17.192Z,24.44
2022-12-27T11:23:27.974Z,24.63
2022-12-27T11:23:39.053Z,24.52
2022-12-27T11:23:50.042Z,24.43
2022-12-27T11:24:00.842Z,24.32
2022-12-27T11:24:11.947Z,24.43
2022-12-27T11:24:22.937Z,24.52
2022-12-27T11:24:33.705Z,24.73
2022-12-27T11:24:44.805Z,24.62
2022-12-27T11:24:55.774Z,24.51
2022-12-27T11:25:06.551Z,24.41
2022-12-27T11:25:17.673Z,24.41
2022-12-27T11:25:28.649Z,24.32
2022-12-27T11:25:39.415Z,24.32
2022-12-27T11:25:49.953Z,24.32
2022-12-27T11:26:00.933Z,24.21
2022-12-27T11:26:11.751Z,24.21
2022-12-27T11:26:22.308Z,24.21
2022-12-27T11:26:33.288Z,24.11
2022-12-27T11:26:48.771Z,23.90
2022-12-27T11:26:56.149Z,24.10
2022-12-27T11:27:06.049Z,24.20
2022-12-27T11:27:16.841Z,24.30
2022-12-27T11:27:27.381Z,24.10
2022-12-27T11:27:38.062Z,24.11
2022-12-27T11:27:48.856Z,24.01
2022-12-27T11:27:59.928Z,24.11
2022-12-27T11:28:10.968Z,24.21
2022-12-27T11:28:21.754Z,24.32
2022-12-27T11:28:32.849Z,24.32
2022-12-27T11:28:43.827Z,24.21
2022-12-27T11:28:54.601Z,24.11
2022-12-27T11:29:05.681Z,24.21
2022-12-27T11:29:16.663Z,24.62
2022-12-27T11:29:27.450Z,24.71
2022-12-27T11:29:37.985Z,24.91
2022-12-27T11:29:49.013Z,24.81
2022-12-27T11:29:59.803Z,24.81
2022-12-27T11:30:10.353Z,24.91
2022-12-27T11:30:21.364Z,24.92
2022-12-27T11:30:32.162Z,24.91
2022-12-27T11:30:43.223Z,24.82
2022-12-27T11:30:54.227Z,24.82
2022-12-27T11:31:05.039Z,24.62
2022-12-27T11:31:16.132Z,24.52
2022-12-27T11:31:27.130Z,24.52
2022-12-27T11:31:37.930Z,24.32
2022-12-27T11:31:49.021Z,24.52
2022-12-27T11:32:00.212Z,24.73
2022-12-27T11:32:10.951Z,24.73
2022-12-27T11:32:22.038Z,24.73
2022-12-27T11:32:33.036Z,24.63
2022-12-27T11:32:43.845Z,24.93
2022-12-27T11:32:54.916Z,25.23
2022-12-27T11:33:05.887Z,25.43
2022-12-27T11:33:22.569Z,25.43
2022-12-27T11:33:28.754Z,25.34
2022-12-27T11:33:38.654Z,24.85
2022-12-27T11:33:49.460Z,24.95
2022-12-27T11:34:00.006Z,25.24
2022-12-27T11:34:10.984Z,25.26
2022-12-27T11:34:21.757Z,25.46
2022-12-27T11:34:32.320Z,25.66
2022-12-27T11:34:43.289Z,25.76
2022-12-27T11:34:54.232Z,25.97
2022-12-27T11:35:04.826Z,26.07
2022-12-27T11:35:15.769Z,26.07
2022-12-27T11:35:26.561Z,26.28
2022-12-27T11:35:37.093Z,26.48
2022-12-27T11:35:48.098Z,26.48
2022-12-27T11:35:58.854Z,26.50
2022-12-27T11:36:09.934Z,26.50
2022-12-27T11:36:20.956Z,26.41
2022-12-27T11:36:31.727Z,26.61
2022-12-27T11:36:42.814Z,26.71
2022-12-27T11:36:53.806Z,26.82
2022-12-27T11:37:04.599Z,27.12
2022-12-27T11:37:15.115Z,27.33
2022-12-27T11:37:26.105Z,27.45
2022-12-27T11:37:36.879Z,27.75
2022-12-27T11:37:47.972Z,28.06
2022-12-27T11:37:58.947Z,28.16
2022-12-27T11:38:09.725Z,28.28
2022-12-27T11:38:20.803Z,28.48
2022-12-27T11:38:31.805Z,28.49
2022-12-27T11:38:42.574Z,28.79
2022-12-27T11:38:53.649Z,29.21
2022-12-27T11:39:04.675Z,29.61
2022-12-27T11:39:15.437Z,29.93
2022-12-27T11:39:25.977Z,30.32
2022-12-27T11:39:36.966Z,30.44
2022-12-27T11:39:47.752Z,29.83
2022-12-27T11:39:58.290Z,30.05
2022-12-27T11:40:09.264Z,30.15
2022-12-27T11:40:20.077Z,29.95
2022-12-27T11:40:30.641Z,29.57
2022-12-27T11:40:41.571Z,29.46
2022-12-27T11:40:52.353Z,29.86
2022-12-27T11:41:03.467Z,30.08
2022-12-27T11:41:14.434Z,29.88
2022-12-27T11:41:28.087Z,29.90
2022-12-27T11:41:36.025Z,30.10
2022-12-27T11:41:46.988Z,30.40
2022-12-27T11:41:57.793Z,30.70
2022-12-27T11:42:08.863Z,30.91
2022-12-27T11:42:19.877Z,31.02
2022-12-27T11:42:30.630Z,30.83
2022-12-27T11:42:41.717Z,30.93
2022-12-27T11:42:52.713Z,31.33
2022-12-27T11:43:03.489Z,31.55
2022-12-27T11:43:14.031Z,31.65
2022-12-27T11:43:25.008Z,31.76
2022-12-27T11:43:35.798Z,31.87
2022-12-27T11:43:46.882Z,31.87
2022-12-27T11:43:57.864Z,32.17
2022-12-27T11:44:08.651Z,32.59
2022-12-27T11:44:19.214Z,32.89
2022-12-27T11:44:30.191Z,33.19
2022-12-27T11:44:41.009Z,33.21
2022-12-27T11:44:51.542Z,33.21
2022-12-27T11:45:02.507Z,33.21
2022-12-27T11:45:13.319Z,33.11
2022-12-27T11:45:23.852Z,33.22
2022-12-27T11:45:34.835Z,33.22
2022-12-27T11:45:45.605Z,33.33
2022-12-27T11:45:56.153Z,33.44
2022-12-27T11:46:07.131Z,33.75
2022-12-27T11:46:18.031Z,33.84
2022-12-27T11:46:28.601Z,34.06
2022-12-27T11:46:39.608Z,34.37
2022-12-27T11:46:54.019Z,34.47
2022-12-27T11:47:02.495Z,34.57
2022-12-27T11:47:12.496Z,34.67
2022-12-27T11:47:23.323Z,34.89
2022-12-27T11:47:33.917Z,34.69
2022-12-27T11:47:44.854Z,34.08
2022-12-27T11:47:55.636Z,33.98
2022-12-27T11:48:06.716Z,34.08
2022-12-27T11:48:17.698Z,34.38
2022-12-27T11:48:28.505Z,34.70
2022-12-27T11:48:39.601Z,34.80
2022-12-27T11:48:50.554Z,34.70
2022-12-27T11:49:01.345Z,34.80
2022-12-27T11:49:11.883Z,35.01
2022-12-27T11:49:22.870Z,35.22
2022-12-27T11:49:33.667Z,35.43
2022-12-27T11:49:44.740Z,35.33
2022-12-27T11:49:55.762Z,35.43
2022-12-27T11:50:06.521Z,35.53
2022-12-27T11:50:17.081Z,35.73
2022-12-27T11:50:28.080Z,35.83
2022-12-27T11:50:38.875Z,35.73
2022-12-27T11:50:49.932Z,35.75
2022-12-27T11:51:00.928Z,35.65
2022-12-27T11:51:11.715Z,35.75
2022-12-27T11:51:22.280Z,35.75
2022-12-27T11:51:33.258Z,35.65
2022-12-27T11:51:44.088Z,35.75
2022-12-27T11:51:54.614Z,35.85
2022-12-27T11:52:05.587Z,35.77
2022-12-27T11:52:16.383Z,35.97
2022-12-27T11:52:27.446Z,36.07
2022-12-27T11:52:38.435Z,35.97
2022-12-27T11:52:49.214Z,36.07
2022-12-27T11:52:59.762Z,36.07
2022-12-27T11:53:10.746Z,36.17
2022-12-27T11:53:21.550Z,36.08
2022-12-27T11:53:32.616Z,36.19
2022-12-27T11:53:43.584Z,36.08
2022-12-27T11:53:56.508Z,35.99
2022-12-27T11:54:04.984Z,35.99
2022-12-27T11:54:15.962Z,35.99
2022-12-27T11:54:26.760Z,35.78
2022-12-27T11:54:37.323Z,35.80
2022-12-27T11:54:48.282Z,36.10
2022-12-27T11:54:59.095Z,36.10
2022-12-27T11:55:09.636Z,36.00
2022-12-27T11:55:20.632Z,36.00
2022-12-27T11:55:31.399Z,36.10
2022-12-27T11:55:41.970Z,36.51
2022-12-27T11:55:52.944Z,36.73
2022-12-27T11:56:03.755Z,36.83
2022-12-27T11:56:14.851Z,36.93
2022-12-27T11:56:25.820Z,37.24
2022-12-27T11:56:36.633Z,37.34
2022-12-27T11:56:47.169Z,37.44
2022-12-27T11:56:58.190Z,37.44
2022-12-27T11:57:08.946Z,37.34
2022-12-27T11:57:20.056Z,37.34
2022-12-27T11:57:31.019Z,37.54
2022-12-27T11:57:41.813Z,37.64
2022-12-27T11:57:52.375Z,37.85
2022-12-27T11:58:03.371Z,38.07
2022-12-27T11:58:14.150Z,38.27
2022-12-27T11:58:24.680Z,38.47
2022-12-27T11:58:35.683Z,38.37
2022-12-27T11:58:46.466Z,38.37
2022-12-27T11:58:57.538Z,38.17
2022-12-27T11:59:08.513Z,38.27
2022-12-27T11:59:19.336Z,38.37
2022-12-27T11:59:29.884Z,38.37
2022-12-27T11:59:40.875Z,38.47
2022-12-27T11:59:51.653Z,38.37
2022-12-27T12:00:02.733Z,38.49
2022-12-27T12:00:13.715Z,38.59
2022-12-27T12:00:24.514Z,38.70
2022-12-27T12:00:35.601Z,38.70
2022-12-27T12:00:46.622Z,38.90
2022-12-27T12:01:02.066Z,39.00
2022-12-27T12:01:09.479Z,39.10
2022-12-27T12:01:19.419Z,38.79
2022-12-27T12:01:30.240Z,38.70
2022-12-27T12:01:40.881Z,38.59
2022-12-27T12:01:51.470Z,38.81
2022-12-27T12:02:02.495Z,39.00
2022-12-27T12:02:13.134Z,39.20
2022-12-27T12:02:24.134Z,39.22
2022-12-27T12:02:34.976Z,39.22
2022-12-27T12:02:45.562Z,39.22
2022-12-27T12:02:56.190Z,39.22
2022-12-27T12:03:07.046Z,39.32
2022-12-27T12:03:17.660Z,39.53
2022-12-27T12:03:28.648Z,39.53
2022-12-27T12:03:39.465Z,39.53
2022-12-27T12:03:49.999Z,39.62
2022-12-27T12:04:00.992Z,39.73
2022-12-27T12:04:11.781Z,39.93
2022-12-27T12:04:22.314Z,39.85
2022-12-27T12:04:33.318Z,39.85
2022-12-27T12:04:44.165Z,39.64
2022-12-27T12:04:54.784Z,39.54
2022-12-27T12:05:05.428Z,39.75
2022-12-27T12:05:16.189Z,39.95
2022-12-27T12:05:27.299Z,40.05
2022-12-27T12:05:38.264Z,40.05
2022-12-27T12:05:49.053Z,40.05
2022-12-27T12:06:00.130Z,40.16
2022-12-27T12:06:11.112Z,40.25
2022-12-27T12:06:21.905Z,40.36
2022-12-27T12:06:34.680Z,40.56
2022-12-27T12:06:43.629Z,40.68
2022-12-27T12:06:54.386Z,40.58
2022-12-27T12:07:04.934Z,40.58
2022-12-27T12:07:15.919Z,40.68
2022-12-27T12:07:26.715Z,40.78
2022-12-27T12:07:37.809Z,40.88
2022-12-27T12:07:48.789Z,41.09
2022-12-27T12:07:59.577Z,41.19
2022-12-27T12:08:10.656Z,41.19
2022-12-27T12:08:21.648Z,41.29
2022-12-27T12:08:32.450Z,41.52
2022-12-27T12:08:43.529Z,41.72
2022-12-27T12:08:54.536Z,41.92
2022-12-27T12:09:05.329Z,42.02
2022-12-27T12:09:15.848Z,42.22
2022-12-27T12:09:26.845Z,42.22
2022-12-27T12:09:37.639Z,42.22
2022-12-27T12:09:48.187Z,42.13
2022-12-27T12:09:59.188Z,41.82
2022-12-27T12:10:09.961Z,41.52
2022-12-27T12:10:21.094Z,41.52
2022-12-27T12:10:32.043Z,41.21
2022-12-27T12:10:42.837Z,40.91
2022-12-27T12:10:53.417Z,40.70
2022-12-27T12:11:04.380Z,40.60
2022-12-27T12:11:15.160Z,40.70
2022-12-27T12:11:25.723Z,40.62
2022-12-27T12:11:36.730Z,40.62
2022-12-27T12:11:54.452Z,40.72
2022-12-27T12:11:59.081Z,40.72
2022-12-27T12:12:09.021Z,40.72
2022-12-27T12:12:19.805Z,40.82
2022-12-27T12:12:30.362Z,40.92
2022-12-27T12:12:41.359Z,41.13
2022-12-27T12:12:52.135Z,41.13
2022-12-27T12:13:03.216Z,41.02
2022-12-27T12:13:14.242Z,41.02
2022-12-27T12:13:25.003Z,41.13
2022-12-27T12:13:36.107Z,41.23
2022-12-27T12:13:47.108Z,41.33
2022-12-27T12:13:57.881Z,41.33
2022-12-27T12:14:08.957Z,41.55
2022-12-27T12:14:19.944Z,41.75
2022-12-27T12:14:30.730Z,41.96
2022-12-27T12:14:41.822Z,42.06
2022-12-27T12:14:52.838Z,42.16
2022-12-27T12:15:03.600Z,42.37
2022-12-27T12:15:14.673Z,42.57
2022-12-27T12:15:25.735Z,42.68
2022-12-27T12:15:36.503Z,42.77
2022-12-27T12:15:47.573Z,42.88
2022-12-27T12:15:58.579Z,43.08
2022-12-27T12:16:09.375Z,43.08
2022-12-27T12:16:20.519Z,43.08
2022-12-27T12:16:31.521Z,42.88
2022-12-27T12:16:42.348Z,42.68
2022-12-27T12:16:52.888Z,42.68
2022-12-27T12:17:03.895Z,42.68
2022-12-27T12:17:14.656Z,42.77
2022-12-27T12:17:28.633Z,42.88
2022-12-27T12:17:37.760Z,42.77
2022-12-27T12:17:47.379Z,42.77
2022-12-27T12:17:58.457Z,42.98
2022-12-27T12:18:09.447Z,43.08
2022-12-27T12:18:20.233Z,43.18
2022-12-27T12:18:31.320Z,43.20
2022-12-27T12:18:42.321Z,43.30
2022-12-27T12:18:53.089Z,43.30
2022-12-27T12:19:04.183Z,43.30
2022-12-27T12:19:15.172Z,43.30
2022-12-27T12:19:25.937Z,43.30
2022-12-27T12:19:37.015Z,43.20
2022-12-27T12:19:48.004Z,43.20
2022-12-27T12:19:58.811Z,43.30
2022-12-27T12:20:09.874Z,43.30
2022-12-27T12:20:20.906Z,43.30
2022-12-27T12:20:31.727Z,43.30
2022-12-27T12:20:47.050Z,43.41
2022-12-27T12:20:54.265Z,43.61
2022-12-27T12:21:03.885Z,43.71
2022-12-27T12:21:14.434Z,43.94
2022-12-27T12:21:25.400Z,44.12
2022-12-27T12:21:36.227Z,44.24
2022-12-27T12:21:47.277Z,44.24
2022-12-27T12:21:58.287Z,44.24
2022-12-27T12:22:09.091Z,44.14
2022-12-27T12:22:19.609Z,44.14
2022-12-27T12:22:30.604Z,44.24
2022-12-27T12:22:41.423Z,44.34
2022-12-27T12:22:51.942Z,44.45
2022-12-27T12:23:02.919Z,44.55
2022-12-27T12:23:13.707Z,44.45
2022-12-27T12:23:24.787Z,44.55
2022-12-27T12:23:35.788Z,44.65
2022-12-27T12:23:46.591Z,44.75
2022-12-27T12:23:57.658Z,44.55
2022-12-27T12:24:08.647Z,44.45
2022-12-27T12:24:19.428Z,44.45
2022-12-27T12:24:30.522Z,44.34
2022-12-27T12:24:41.495Z,44.14
2022-12-27T12:24:52.299Z,44.14
2022-12-27T12:25:02.856Z,43.94
2022-12-27T12:25:13.829Z,43.94
2022-12-27T12:25:24.635Z,43.84
2022-12-27T12:25:35.171Z,43.94
2022-12-27T12:25:46.147Z,43.94
2022-12-27T12:25:56.939Z,43.84
2022-12-27T12:26:07.482Z,43.73
2022-12-27T12:26:18.465Z,43.63
2022-12-27T12:26:29.382Z,43.73
2022-12-27T12:26:39.932Z,43.94
2022-12-27T12:26:55.700Z,44.14
2022-12-27T12:27:02.924Z,44.16
2022-12-27T12:27:12.931Z,44.26
2022-12-27T12:27:23.912Z,44.37
2022-12-27T12:27:34.697Z,44.37
2022-12-27T12:27:45.817Z,44.45
2022-12-27T12:27:56.780Z,44.57
2022-12-27T12:28:30.037Z,44.57
2022-12-27T12:28:55.737Z,44.67
2022-12-27T12:28:56.792Z,44.57
2022-12-27T12:28:58.279Z,44.26
2022-12-27T12:29:00.417Z,44.16
2022-12-27T12:29:02.867Z,44.16
2022-12-27T12:29:12.458Z,44.16
2022-12-27T12:29:23.551Z,44.16
2022-12-27T12:29:34.529Z,44.37
2022-12-27T12:29:45.317Z,44.57
2022-12-27T12:29:56.405Z,44.67
2022-12-27T12:30:07.407Z,44.67
2022-12-27T12:30:22.368Z,44.78
2022-12-27T12:30:30.271Z,44.78
2022-12-27T12:30:40.209Z,44.98
2022-12-27T12:30:50.991Z,45.08
2022-12-27T12:31:02.079Z,45.08
2022-12-27T12:31:13.062Z,45.18
2022-12-27T12:31:23.892Z,45.18
2022-12-27T12:31:34.426Z,45.18